Lowest pressure

Not for real navigation. The accuracy of this data is not assured See disclaimer for more information



ICAO NAME COUNTRY WIND Kt GUST Kt VIS m TEMP/DEW C BARO METAR
SCRM 31 41 1200 0/0 28.61 SCRM 262100Z 32031G41KT 1200 -BLSN OVC008 M00/// Q0969
NZCM Williams Field Antarctica 10 0 9999 -23/-36 28.84 NZCM 262055Z 34010KT 9999 FEW080 SCT150 M23/M36 A2884 RMK SLP774 FATA MORGANA SE-SW-NW
NZFX 4 0 9999 -37/-41 28.88 NZFX 262055Z 23004KT 9999 FEW030 FEW090 SCT140 M37/M41 A2888 RMK SLP779 RCRNR GRID04004KT SDG/HDG
BGGH Godthaab / Nuuk Greenland 18 0 9999 4/-2 29.18 BGGH 262050Z AUTO 07018KT 9999NDV FEW170/// BKN190/// 04/M02 Q0988
BGBW Narsarsuaq Greenland 4 0 9999 0/-4 29.32 BGBW 262050Z 05004KT 9999 SCT083 00/M04 Q0993

Show more